Time;durP1;ratioP1;P1;durP2;ratioP2;P2;SDS_P1;SDS_P2;PMS_P1;PMS_P2;Temp;Humidity;BMP_temperature;BMP_pressure;BME280_temperature;BME280_humidity;BME280_pressure;Samples;Min_cycle;Max_cycle;Signal;HPM_P1;HPM_P2
2023/10/18 00:01:20;;;;;;;;;;;;;;;;;;5013540;28;20000;-81
2023/10/18 00:03:45;;;;;;;;;;;;;;;;;;5013274;28;19949;-81
2023/10/18 00:06:16;;;;;;;;;;;;;;;;;;5016322;28;20020;-83
2023/10/18 00:08:41;;;;;;;;;;;;;;;;;;5019647;28;19963;-81
2023/10/18 00:11:06;;;;;;;;;;;;;;;;;;5021160;28;19917;-81
2023/10/18 00:13:33;;;;;;;;;;;;;;;;;;5019515;28;19928;-81
2023/10/18 00:15:59;;;;;;;;;;;;;;;;;;5013731;28;19927;-80
2023/10/18 00:18:24;;;;;;;;;;;;;;;;;;5018544;28;19957;-84
2023/10/18 00:20:49;;;;;;;;;;;;;;;;;;5011398;28;19917;-84
2023/10/18 00:23:14;;;;;;;;;;;;;;;;;;5011444;28;19921;-84
2023/10/18 00:25:40;;;;;;;;;;;;;;;;;;5011623;28;20286;-83
2023/10/18 00:28:07;;;;;;;;;;;;;;;;;;5013109;28;19952;-85
2023/10/18 00:30:32;;;;;;;;;;;;;;;;;;5014517;28;19952;-84
2023/10/18 00:32:57;;;;;;;;;;;;;;;;;;5014020;28;19921;-84
2023/10/18 00:35:24;;;;;;;;;;;;;;;;;;5015213;28;20510;-82
2023/10/18 00:37:49;;;;;;;;;;;;;;;;;;5014127;28;20411;-84
2023/10/18 00:42:55;;;;;;;;;;;;;;;;;;5014124;28;19921;-80
2023/10/18 00:45:21;;;;;;;;;;;;;;;;;;5015058;28;19918;-84
2023/10/18 00:47:46;;;;;;;;;;;;;;;;;;5014799;28;19924;-82
2023/10/18 00:50:14;;;;;;;;;;;;;;;;;;5013515;28;19924;-84
2023/10/18 00:52:39;;;;;;;;;;;;;;;;;;5015057;28;19924;-85
2023/10/18 00:55:05;;;;;;;;;;;;;;;;;;5017181;28;19922;-83
2023/10/18 00:57:35;;;;;;;;;;;;;;;;;;5019035;28;20354;-85
2023/10/18 01:00:06;;;;;;;;;;;;;;;;;;5016537;28;19918;-83
2023/10/18 01:02:35;;;;;;;;;;;;;;;;;;5015576;28;19917;-82
2023/10/18 01:05:00;;;;;;;;;;;;;;;;;;5017981;28;20298;-82
2023/10/18 01:07:25;;;;;;;;;;;;;;;;;;5017303;28;20270;-84
2023/10/18 01:09:53;;;;;;;;;;;;;;;;;;5014524;28;19917;-82
2023/10/18 01:12:19;;;;;;;;;;;;;;;;;;5013048;28;19921;-83
2023/10/18 01:14:44;;;;;;;;;;;;;;;;;;5015710;28;20012;-83
2023/10/18 01:17:09;;;;;;;;;;;;;;;;;;5014127;28;19925;-83
2023/10/18 01:19:35;;;;;;;;;;;;;;;;;;5014628;28;19921;-83
2023/10/18 01:22:02;;;;;;;;;;;;;;;;;;5015460;28;19917;-83
2023/10/18 01:24:28;;;;;;;;;;;;;;;;;;5014881;28;19917;-83
2023/10/18 01:26:53;;;;;;;;;;;;;;;;;;5015470;28;19964;-83
2023/10/18 01:29:18;;;;;;;;;;;;;;;;;;5015101;28;19929;-82
2023/10/18 01:31:45;;;;;;;;;;;;;;;;;;5014508;28;19925;-83
2023/10/18 01:34:10;;;;;;;;;;;;;;;;;;5013207;28;20367;-84
2023/10/18 01:36:38;;;;;;;;;;;;;;;;;;5015054;28;20008;-83
2023/10/18 01:39:07;;;;;;;;;;;;;;;;;;5017080;28;19921;-82
2023/10/18 01:41:37;;;;;;;;;;;;;;;;;;5012923;28;20063;-83
2023/10/18 01:44:06;;;;;;;;;;;;;;;;;;5014156;28;19917;-83
2023/10/18 01:46:31;;;;;;;;;;;;;;;;;;5013771;28;20307;-83
2023/10/18 01:48:57;;;;;;;;;;;;;;;;;;5011829;28;20347;-82
2023/10/18 01:51:22;;;;;;;;;;;;;;;;;;5012758;28;19944;-83
2023/10/18 01:53:50;;;;;;;;;;;;;;;;;;5012738;28;19924;-83
2023/10/18 01:56:17;;;;;;;;;;;;;;;;;;5011438;28;19957;-84
2023/10/18 01:58:43;;;;;;;;;;;;;;;;;;5009631;28;19924;-83
2023/10/18 02:01:10;;;;;;;;;;;;;;;;;;5007973;28;21245;-83
2023/10/18 02:03:35;;;;;;;;;;;;;;;;;;5013839;28;20008;-82
2023/10/18 02:06:00;;;;;;;;;;;;;;;;;;5013546;28;20000;-83
2023/10/18 02:08:26;;;;;;;;;;;;;;;;;;5011943;28;19929;-82
2023/10/18 02:10:52;;;;;;;;;;;;;;;;;;5013089;28;19922;-83
2023/10/18 02:13:18;;;;;;;;;;;;;;;;;;5013057;28;20387;-83
2023/10/18 02:15:44;;;;;;;;;;;;;;;;;;5014269;28;19931;-81
2023/10/18 02:18:09;;;;;;;;;;;;;;;;;;5011503;28;20393;-82
2023/10/18 02:20:35;;;;;;;;;;;;;;;;;;5017753;28;19933;-80
2023/10/18 02:23:00;;;;;;;;;;;;;;;;;;5019451;28;19976;-81
2023/10/18 02:25:38;;;;;;;;;;;;;;;;;;5021647;28;19979;-81
2023/10/18 02:28:08;;;;;;;;;;;;;;;;;;5019421;28;19928;-83
2023/10/18 02:30:34;;;;;;;;;;;;;;;;;;5015250;28;19988;-84
2023/10/18 02:33:01;;;;;;;;;;;;;;;;;;5020897;28;20322;-82
2023/10/18 02:35:27;;;;;;;;;;;;;;;;;;5016791;28;19965;-84
2023/10/18 02:37:52;;;;;;;;;;;;;;;;;;5025004;28;19953;-82
2023/10/18 02:40:29;;;;;;;;;;;;;;;;;;5019374;28;19932;-83
2023/10/18 02:42:55;;;;;;;;;;;;;;;;;;5020888;28;20217;-82
2023/10/18 02:45:22;;;;;;;;;;;;;;;;;;5018415;28;19929;-80
2023/10/18 02:47:51;;;;;;;;;;;;;;;;;;5024309;28;19929;-81
2023/10/18 02:50:17;;;;;;;;;;;;;;;;;;5021750;28;19992;-84
2023/10/18 02:52:42;;;;;;;;;;;;;;;;;;5020150;28;19952;-86
2023/10/18 02:55:11;;;;;;;;;;;;;;;;;;5022082;28;19929;-83
2023/10/18 02:57:37;;;;;;;;;;;;;;;;;;5021140;28;19949;-82
2023/10/18 03:00:10;;;;;;;;;;;;;;;;;;5021323;28;20164;-81
2023/10/18 03:02:38;;;;;;;;;;;;;;;;;;5013326;28;19925;-81
2023/10/18 03:05:05;;;;;;;;;;;;;;;;;;5018937;28;19984;-81
2023/10/18 03:07:30;;;;;;;;;;;;;;;;;;5019323;28;19921;-81
2023/10/18 03:10:02;;;;;;;;;;;;;;;;;;5017058;28;19984;-81
2023/10/18 03:12:28;;;;;;;;;;;;;;;;;;5019606;28;19929;-81
2023/10/18 03:14:57;;;;;;;;;;;;;;;;;;5019166;28;19932;-81
2023/10/18 03:19:50;;;;;;;;;;;;;;;;;;5017785;28;19922;-81
2023/10/18 03:22:19;;;;;;;;;;;;;;;;;;5016949;28;19921;-81
2023/10/18 03:24:44;;;;;;;;;;;;;;;;;;5017723;28;19921;-81
2023/10/18 03:27:10;;;;;;;;;;;;;;;;;;5017583;28;19989;-81
2023/10/18 03:29:37;;;;;;;;;;;;;;;;;;5009757;28;19953;-81
2023/10/18 03:32:06;;;;;;;;;;;;;;;;;;5015970;28;19952;-81
2023/10/18 03:34:35;;;;;;;;;;;;;;;;;;5016151;28;19929;-81
2023/10/18 03:37:00;;;;;;;;;;;;;;;;;;5017117;28;19944;-81
2023/10/18 03:39:25;;;;;;;;;;;;;;;;;;5017450;28;19922;-81
2023/10/18 03:41:50;;;;;;;;;;;;;;;;;;5016541;28;20391;-81
2023/10/18 03:44:21;;;;;;;;;;;;;;;;;;5014571;28;19988;-81
2023/10/18 03:46:49;;;;;;;;;;;;;;;;;;5016470;28;19921;-80
2023/10/18 03:54:47;;;;;;;;;;;;;;;;;;5018520;28;19925;-81
2023/10/18 03:57:19;;;;;;;;;;;;;;;;;;5017746;28;20461;-81
2023/10/18 03:59:47;;;;;;;;;;;;;;;;;;5018294;28;19928;-81
2023/10/18 04:04:50;;;;;;;;;;;;;;;;;;5012730;28;19921;-81
2023/10/18 04:07:21;;;;;;;;;;;;;;;;;;5021038;28;19947;-81
2023/10/18 04:09:47;;;;;;;;;;;;;;;;;;5016539;28;19977;-81
2023/10/18 04:12:17;;;;;;;;;;;;;;;;;;5022018;28;19978;-81
2023/10/18 04:14:52;;;;;;;;;;;;;;;;;;5015477;28;19981;-81
2023/10/18 04:17:19;;;;;;;;;;;;;;;;;;5016841;28;19928;-81
2023/10/18 04:19:44;;;;;;;;;;;;;;;;;;5016468;28;19921;-80
2023/10/18 04:22:09;;;;;;;;;;;;;;;;;;5016567;28;19955;-81
2023/10/18 04:24:35;;;;;;;;;;;;;;;;;;5017994;28;20019;-81
2023/10/18 04:27:02;;;;;;;;;;;;;;;;;;5018282;28;20025;-81
2023/10/18 04:29:33;;;;;;;;;;;;;;;;;;5013374;28;19922;-81
2023/10/18 04:31:58;;;;;;;;;;;;;;;;;;5013269;28;19917;-81
2023/10/18 04:34:24;;;;;;;;;;;;;;;;;;5012745;28;19932;-82
2023/10/18 04:36:51;;;;;;;;;;;;;;;;;;5015002;28;19927;-81
2023/10/18 04:39:18;;;;;;;;;;;;;;;;;;5027827;28;20022;-84
2023/10/18 04:41:44;;;;;;;;;;;;;;;;;;5018913;28;19981;-80
2023/10/18 04:44:23;;;;;;;;;;;;;;;;;;5020223;28;19968;-83
2023/10/18 04:46:52;;;;;;;;;;;;;;;;;;5023299;28;20028;-81
2023/10/18 04:49:23;;;;;;;;;;;;;;;;;;5020423;28;19925;-83
2023/10/18 04:51:48;;;;;;;;;;;;;;;;;;5017727;28;20579;-86
2023/10/18 04:54:17;;;;;;;;;;;;;;;;;;5017817;28;19930;-83
2023/10/18 04:56:44;;;;;;;;;;;;;;;;;;5018748;28;20198;-82
2023/10/18 04:59:11;;;;;;;;;;;;;;;;;;5025100;28;20296;-83
2023/10/18 05:01:36;;;;;;;;;;;;;;;;;;5022582;28;20329;-82
2023/10/18 05:04:18;;;;;;;;;;;;;;;;;;5018783;28;19921;-83
2023/10/18 05:06:43;;;;;;;;;;;;;;;;;;5019559;28;19943;-85
2023/10/18 05:09:08;;;;;;;;;;;;;;;;;;5017863;28;20438;-82
2023/10/18 05:11:46;;;;;;;;;;;;;;;;;;5015939;28;19947;-84
2023/10/18 05:14:19;;;;;;;;;;;;;;;;;;5025885;28;19952;-82
2023/10/18 05:16:45;;;;;;;;;;;;;;;;;;5019691;28;19926;-84
2023/10/18 05:19:11;;;;;;;;;;;;;;;;;;5021513;28;19960;-81
2023/10/18 05:21:38;;;;;;;;;;;;;;;;;;5028269;28;19921;-81
2023/10/18 05:24:04;;;;;;;;;;;;;;;;;;5021860;28;19922;-82
2023/10/18 05:26:32;;;;;;;;;;;;;;;;;;5021196;28;19971;-81
2023/10/18 05:29:01;;;;;;;;;;;;;;;;;;5020357;28;19921;-80
2023/10/18 05:31:48;;;;;;;;;;;;;;;;;;5020375;28;19921;-83
2023/10/18 05:39:27;;;;;;;;;;;;;;;;;;5019274;28;19922;-81
2023/10/18 05:41:59;;;;;;;;;;;;;;;;;;5018471;28;19941;-84
2023/10/18 05:44:24;;;;;;;;;;;;;;;;;;5017365;28;19925;-82
2023/10/18 05:46:50;;;;;;;;;;;;;;;;;;5018023;28;19951;-81
2023/10/18 05:49:15;;;;;;;;;;;;;;;;;;5017976;28;19921;-82
2023/10/18 05:51:51;;;;;;;;;;;;;;;;;;5016887;28;19967;-82
2023/10/18 05:54:19;;;;;;;;;;;;;;;;;;5018963;28;20314;-81
2023/10/18 05:56:49;;;;;;;;;;;;;;;;;;5015898;28;20007;-84
2023/10/18 06:01:45;;;;;;;;;;;;;;;;;;5023652;28;19921;-82
2023/10/18 06:04:14;;;;;;;;;;;;;;;;;;5026082;28;19921;-80
2023/10/18 06:06:39;;;;;;;;;;;;;;;;;;5017933;28;20323;-85
2023/10/18 06:09:10;;;;;;;;;;;;;;;;;;5018244;28;20302;-81
2023/10/18 06:11:36;;;;;;;;;;;;;;;;;;5018835;28;19951;-83
2023/10/18 06:14:05;;;;;;;;;;;;;;;;;;5018659;28;19929;-83
2023/10/18 06:16:34;;;;;;;;;;;;;;;;;;5023722;28;19971;-84
2023/10/18 06:18:59;;;;;;;;;;;;;;;;;;5028316;28;19996;-82
2023/10/18 06:21:25;;;;;;;;;;;;;;;;;;5022636;28;19957;-83
2023/10/18 06:23:56;;;;;;;;;;;;;;;;;;5027630;28;19944;-83
2023/10/18 06:26:28;;;;;;;;;;;;;;;;;;5020560;28;19925;-82
2023/10/18 06:28:53;;;;;;;;;;;;;;;;;;5017059;28;19922;-81
2023/10/18 06:31:18;;;;;;;;;;;;;;;;;;5027517;28;19921;-83
2023/10/18 06:33:44;;;;;;;;;;;;;;;;;;5017741;28;20279;-84
2023/10/18 06:36:12;;;;;;;;;;;;;;;;;;5019033;28;19925;-83
2023/10/18 06:38:37;;;;;;;;;;;;;;;;;;5018276;28;19921;-82
2023/10/18 06:41:03;;;;;;;;;;;;;;;;;;5016507;28;19925;-84
2023/10/18 06:43:29;;;;;;;;;;;;;;;;;;5019776;28;19948;-83
2023/10/18 06:45:54;;;;;;;;;;;;;;;;;;5016984;28;19930;-86
2023/10/18 06:48:19;;;;;;;;;;;;;;;;;;5018288;28;19921;-82
2023/10/18 06:50:46;;;;;;;;;;;;;;;;;;5022169;28;20430;-84
2023/10/18 06:53:12;;;;;;;;;;;;;;;;;;5019830;28;20354;-83
2023/10/18 06:55:55;;;;;;;;;;;;;;;;;;5021464;28;19933;-82
2023/10/18 07:00:52;;;;;;;;;;;;;;;;;;5005328;28;19930;-81
2023/10/18 07:03:18;;;;;;;;;;;;;;;;;;5015779;28;20383;-83
2023/10/18 07:05:43;;;;;;;;;;;;;;;;;;5015145;28;19948;-83
2023/10/18 07:08:18;;;;;;;;;;;;;;;;;;5015515;28;19932;-83
2023/10/18 07:10:53;;;;;;;;;;;;;;;;;;5015742;28;19928;-84
2023/10/18 07:13:21;;;;;;;;;;;;;;;;;;5016431;28;19918;-82
2023/10/18 07:15:46;;;;;;;;;;;;;;;;;;5014844;28;19933;-82
2023/10/18 07:18:14;;;;;;;;;;;;;;;;;;5016036;28;19924;-82
2023/10/18 07:20:39;;;;;;;;;;;;;;;;;;5014545;28;19917;-82
2023/10/18 07:23:05;;;;;;;;;;;;;;;;;;5016675;28;20051;-82
2023/10/18 07:25:32;;;;;;;;;;;;;;;;;;5019280;28;19926;-84
2023/10/18 07:27:59;;;;;;;;;;;;;;;;;;5026904;28;19917;-85
2023/10/18 07:30:37;;;;;;;;;;;;;;;;;;5021553;28;19921;-80
2023/10/18 07:33:02;;;;;;;;;;;;;;;;;;5012099;28;19924;-86
2023/10/18 07:35:30;;;;;;;;;;;;;;;;;;5018323;28;19921;-86
2023/10/18 07:37:55;;;;;;;;;;;;;;;;;;5017972;28;19948;-83
2023/10/18 07:40:21;;;;;;;;;;;;;;;;;;5019863;28;19985;-83
2023/10/18 07:42:50;;;;;;;;;;;;;;;;;;5018160;28;19921;-87
2023/10/18 07:45:15;;;;;;;;;;;;;;;;;;5016760;28;19957;-83
2023/10/18 07:47:40;;;;;;;;;;;;;;;;;;5016526;28;20295;-84
2023/10/18 07:50:34;;;;;;;;;;;;;;;;;;5016750;28;19921;-84
2023/10/18 07:52:54;;;;;;;;;;;;;;;;;;5016447;28;20411;-82
2023/10/18 07:55:19;;;;;;;;;;;;;;;;;;5017328;28;19972;-85
2023/10/18 07:57:46;;;;;;;;;;;;;;;;;;5015641;28;19926;-85
2023/10/18 08:00:32;;;;;;;;;;;;;;;;;;5012675;28;19931;-85
2023/10/18 08:02:57;;;;;;;;;;;;;;;;;;5014436;28;19929;-84
2023/10/18 08:05:24;;;;;;;;;;;;;;;;;;5018861;28;19929;-83
2023/10/18 08:07:51;;;;;;;;;;;;;;;;;;5016113;28;19921;-83
2023/10/18 08:10:19;;;;;;;;;;;;;;;;;;5014674;28;19933;-85
2023/10/18 08:12:44;;;;;;;;;;;;;;;;;;5016746;28;19932;-86
2023/10/18 08:15:22;;;;;;;;;;;;;;;;;;5011536;28;19929;-83
2023/10/18 08:17:50;;;;;;;;;;;;;;;;;;5018553;28;20493;-83
2023/10/18 08:22:47;;;;;;;;;;;;;;;;;;5023141;28;20462;-85
2023/10/18 08:25:29;;;;;;;;;;;;;;;;;;5022557;28;19967;-86
2023/10/18 08:27:54;;;;;;;;;;;;;;;;;;5015520;28;19972;-83
2023/10/18 08:33:08;;;;;;;;;;;;;;;;;;4999397;28;19922;-86
2023/10/18 08:35:33;;;;;;;;;;;;;;;;;;5016197;28;19926;-86
2023/10/18 08:38:01;;;;;;;;;;;;;;;;;;5010727;28;19917;-84
2023/10/18 08:43:06;;;;;;;;;;;;;;;;;;5018564;28;19946;-83
2023/10/18 08:45:36;;;;;;;;;;;;;;;;;;5015592;28;19932;-85
2023/10/18 08:48:06;;;;;;;;;;;;;;;;;;5016430;28;19948;-84
2023/10/18 08:50:33;;;;;;;;;;;;;;;;;;5026482;28;19930;-84
2023/10/18 08:52:59;;;;;;;;;;;;;;;;;;5022476;28;20059;-84
2023/10/18 08:55:43;;;;;;;;;;;;;;;;;;5023100;28;19961;-83
2023/10/18 08:58:08;;;;;;;;;;;;;;;;;;5017288;28;19921;-82
2023/10/18 09:02:59;;;;;;;;;;;;;;;;;;5017471;28;19921;-82
2023/10/18 09:05:24;;;;;;;;;;;;;;;;;;5016027;28;19940;-83
2023/10/18 09:07:50;;;;;;;;;;;;;;;;;;5015358;28;20295;-82
2023/10/18 09:10:33;;;;;;;;;;;;;;;;;;5014719;28;19964;-82
2023/10/18 09:15:35;;;;;;;;;;;;;;;;;;5020517;28;19926;-85
2023/10/18 09:18:03;;;;;;;;;;;;;;;;;;5020712;28;19921;-84
2023/10/18 09:20:29;;;;;;;;;;;;;;;;;;5017422;28;20442;-85
2023/10/18 09:23:01;;;;;;;;;;;;;;;;;;5018334;28;19963;-85
2023/10/18 09:25:27;;;;;;;;;;;;;;;;;;5020165;28;19996;-85
2023/10/18 09:28:06;;;;;;;;;;;;;;;;;;5018599;28;19944;-85
2023/10/18 09:30:33;;;;;;;;;;;;;;;;;;5016793;28;20297;-85
2023/10/18 09:32:58;;;;;;;;;;;;;;;;;;5006850;28;20423;-85
2023/10/18 09:35:27;;;;;;;;;;;;;;;;;;5009069;28;20391;-86
2023/10/18 09:37:52;;;;;;;;;;;;;;;;;;5013895;28;19921;-85
2023/10/18 09:40:18;;;;;;;;;;;;;;;;;;5014794;28;19951;-85
2023/10/18 09:42:44;;;;;;;;;;;;;;;;;;5016543;28;19921;-85
2023/10/18 09:45:09;;;;;;;;;;;;;;;;;;5015210;28;19921;-85
2023/10/18 09:47:35;;;;;;;;;;;;;;;;;;5016343;28;19953;-85
2023/10/18 09:50:06;;;;;;;;;;;;;;;;;;5020063;28;20534;-85
2023/10/18 09:52:32;;;;;;;;;;;;;;;;;;5008171;28;20358;-85
2023/10/18 09:54:59;;;;;;;;;;;;;;;;;;5006887;28;20390;-85
2023/10/18 09:57:25;;;;;;;;;;;;;;;;;;5012175;28;19925;-85
2023/10/18 09:59:51;;;;;;;;;;;;;;;;;;5007277;28;20329;-86
2023/10/18 10:02:16;;;;;;;;;;;;;;;;;;5006665;28;20012;-86
2023/10/18 10:04:42;;;;;;;;;;;;;;;;;;5005886;28;20005;-86
2023/10/18 10:09:59;;;;;;;;;;;;;;;;;;5013894;28;20418;-85
2023/10/18 10:12:27;;;;;;;;;;;;;;;;;;5011943;28;19984;-86
2023/10/18 10:14:52;;;;;;;;;;;;;;;;;;5010298;28;19937;-85
2023/10/18 10:17:18;;;;;;;;;;;;;;;;;;5012708;28;19921;-85
2023/10/18 10:19:43;;;;;;;;;;;;;;;;;;5014253;28;19933;-86
2023/10/18 10:22:08;;;;;;;;;;;;;;;;;;5006129;28;19922;-85
2023/10/18 10:24:35;;;;;;;;;;;;;;;;;;5010405;28;19921;-86
2023/10/18 10:27:00;;;;;;;;;;;;;;;;;;5005098;28;19922;-86
2023/10/18 10:31:54;;;;;;;;;;;;;;;;;;5014810;28;19963;-86
2023/10/18 10:34:26;;;;;;;;;;;;;;;;;;5014662;28;20379;-85
2023/10/18 10:36:52;;;;;;;;;;;;;;;;;;5008151;28;19933;-86
2023/10/18 10:39:23;;;;;;;;;;;;;;;23.80;nan;99532.34;5008883;28;19991;-86
2023/10/18 10:41:49;;;;;;;;;;;;;;;24.05;nan;99528.97;5011066;28;19922;-85
2023/10/18 10:44:22;;;;;;;;;;;;;;;23.90;nan;99520.78;5014353;28;19940;-86
2023/10/18 10:46:50;;;;;;;;;;;;;;;;;;5016395;28;20582;-86
2023/10/18 10:49:16;;;;;;;;;;;;;;;;;;5019409;28;19921;-86
2023/10/18 10:51:49;;;;;;;;;;;;;;;25.38;nan;99518.22;5007283;28;19928;-87
2023/10/18 10:54:15;;;;;;;;;;;;;;;;;;5011767;28;19930;-86
2023/10/18 10:56:48;;;;;;;;;;;;;;;26.61;nan;99501.44;5009090;28;19926;-86
2023/10/18 10:59:19;;;;;;;;;;;;;;;26.83;nan;99509.13;5015275;28;19931;-86
2023/10/18 11:04:24;;;;;;;;;;;;;;;26.40;nan;99462.78;5006857;28;19922;-86
2023/10/18 11:06:56;;;;;;;;;;;;;;;25.86;nan;99450.13;5013742;28;19967;-86
2023/10/18 11:09:27;;;;;;;;;;;;;;;24.59;nan;99446.66;5012615;28;19968;-86
2023/10/18 11:11:56;;;;;;;;;;;;;;;24.09;nan;99445.50;5016149;28;19925;-86
2023/10/18 11:14:27;;;;;;;;;;;;;;;23.02;nan;99430.47;5013775;28;20595;-86
2023/10/18 11:16:56;;;;;;;;;;;;;;;22.06;nan;99412.44;5012552;28;20019;-84
2023/10/18 11:19:28;;;;;;;;;;;;;;;21.27;nan;99411.00;5014344;28;19925;-86
2023/10/18 11:21:54;;;;;;;;;;;;;;;20.85;nan;99398.03;5015924;28;20016;-86
2023/10/18 11:24:21;;;;;;;;;;;;;;;20.63;nan;99406.06;5011863;28;19976;-86
2023/10/18 11:26:47;;;;;;;;;;;;;;;20.56;nan;99410.78;5010612;28;19929;-87
2023/10/18 11:29:12;;;;;;;;;;;;;;;20.39;nan;99389.28;5012092;28;19921;-86
2023/10/18 11:31:44;;;;;;;;;;;;;;;;;;5010707;28;19921;-86
2023/10/18 11:34:14;;;;;;;;;;;;;;;;;;5010414;28;19929;-86
2023/10/18 11:36:39;;;;;;;;;;;;;;;;;;5012620;28;19921;-86
2023/10/18 11:39:07;;;;;;;;;;;;;;;;;;5014528;28;19928;-85
2023/10/18 11:41:36;;;;;;;;;;;;;;;;;;5014231;28;19952;-88
2023/10/18 11:44:01;;;;;;;;;;;;;;;;;;5014835;28;19921;-86
2023/10/18 11:46:26;;;;;;;;;;;;;;;;;;5011713;28;19921;-85
2023/10/18 11:48:51;;;;;;;;;;;;;;;;;;5013622;28;19921;-85
2023/10/18 11:51:16;;;;;;;;;;;;;;;;;;5014328;28;19921;-86
2023/10/18 11:53:41;;;;;;;;;;;;;;;;;;5011340;28;19950;-86
2023/10/18 11:56:08;;;;;;;;;;;;;;;;;;5012934;28;19922;-86
2023/10/18 11:58:33;;;;;;;;;;;;;;;;;;5015242;28;19922;-85
2023/10/18 12:01:05;;;;;;;;;;;;;;;;;;5016543;28;19936;-86
2023/10/18 12:03:33;;;;;;;;;;;;;;;;;;5015035;28;19972;-86
2023/10/18 12:05:59;;;;;;;;;;;;;;;;;;5017108;28;19957;-85
2023/10/18 12:08:24;;;;;;;;;;;;;;;;;;5015641;28;20521;-85
2023/10/18 12:10:49;;;;;;;;;;;;;;;;;;5014622;28;20011;-86
2023/10/18 12:13:17;;;;;;;;;;;;;;;;;;5013196;28;19925;-86
2023/10/18 12:15:42;;;;;;;;;;;;;;;;;;5016135;28;20321;-86
2023/10/18 12:18:08;;;;;;;;;;;;;;;;;;5010228;28;20398;-86
2023/10/18 12:20:37;;;;;;;;;;;;;;;;;;5011847;28;19944;-86
2023/10/18 12:23:02;;;;;;;;;;;;;;;;;;5010099;28;20376;-86
2023/10/18 12:25:27;;;;;;;;;;;;;;;;;;5016380;28;19940;-85
2023/10/18 12:27:52;;;;;;;;;;;;;;;;;;5014357;28;19928;-85
2023/10/18 12:30:38;;;;;;;;;;;;;;;;;;5017248;28;19922;-85
2023/10/18 12:33:06;;;;;;;;;;;;;;;;;;5017045;28;19928;-86
2023/10/18 12:35:31;;;;;;;;;;;;;;;;;;5016307;28;19945;-86
2023/10/18 12:37:56;;;;;;;;;;;;;;;;;;5019424;28;20274;-85
2023/10/18 12:40:38;;;;;;;;;;;;;;;;;;5018051;28;19941;-86
2023/10/18 12:43:17;;;;;;;;;;;;;;;;;;5016722;28;19925;-86
2023/10/18 12:45:42;;;;;;;;;;;;;;;;;;5017940;28;19926;-86
2023/10/18 12:48:09;;;;;;;;;;;;;;;;;;5021969;28;19929;-85
2023/10/18 12:50:34;;;;;;;;;;;;;;;;;;5023046;28;20009;-86
2023/10/18 12:53:17;;;;;;;;;;;;;;;;;;5023181;28;19949;-85
2023/10/18 12:55:43;;;;;;;;;;;;;;;;;;5023634;28;19921;-85
2023/10/18 12:58:09;;;;;;;;;;;;;;;;;;5015115;28;19926;-86
2023/10/18 13:00:54;;;;;;;;;;;;;;;;;;5026518;28;19928;-85
2023/10/18 13:03:23;;;;;;;;;;;;;;;;;;5026696;28;19926;-85
2023/10/18 13:05:52;;;;;;;;;;;;;;;;;;5025968;28;20413;-86
2023/10/18 13:08:23;;;;;;;;;;;;;;;;;;5024672;28;19928;-86
2023/10/18 13:10:57;;;;;;;;;;;;;;;;;;5018083;28;19940;-85
2023/10/18 13:13:23;;;;;;;;;;;;;;;;;;5017389;28;20034;-85
2023/10/18 13:15:48;;;;;;;;;;;;;;;;;;5017251;28;19944;-85
2023/10/18 13:18:14;;;;;;;;;;;;;;;;;;5006665;28;20156;-85
2023/10/18 13:20:43;;;;;;;;;;;;;;;;;;5013543;28;20020;-84
2023/10/18 13:23:08;;;;;;;;;;;;;;;;;;5014433;28;19941;-85
2023/10/18 13:25:37;;;;;;;;;;;;;;;;;;5012675;28;19995;-85
2023/10/18 13:28:05;;;;;;;;;;;;;;;;;;5013525;28;20371;-85
2023/10/18 13:30:43;;;;;;;;;;;;;;;;;;5013387;28;19917;-85
2023/10/18 13:33:11;;;;;;;;;;;;;;;;;;5014592;28;20291;-85
2023/10/18 13:35:39;;;;;;;;;;;;;;;;;;5014571;28;20362;-85
2023/10/18 13:38:04;;;;;;;;;;;;;;;;;;5015468;28;20048;-85
2023/10/18 13:40:29;;;;;;;;;;;;;;;;;;5013524;28;19967;-85
2023/10/18 13:42:54;;;;;;;;;;;;;;;;;;5013709;28;19917;-85
2023/10/18 13:45:20;;;;;;;;;;;;;;;;;;5012140;28;20291;-85
2023/10/18 13:47:45;;;;;;;;;;;;;;;;;;5009403;28;19940;-84
2023/10/18 13:50:10;;;;;;;;;;;;;;;;;;5014599;28;19928;-85
2023/10/18 13:52:35;;;;;;;;;;;;;;;;;;5013252;28;19925;-84
2023/10/18 13:55:00;;;;;;;;;;;;;;;;;;5014599;28;20008;-84
2023/10/18 13:57:26;;;;;;;;;;;;;;;;;;5016717;28;19917;-85
2023/10/18 13:59:51;;;;;;;;;;;;;;;;;;5022247;28;20171;-85
2023/10/18 14:02:17;;;;;;;;;;;;;;;;;;5020311;28;19981;-85
2023/10/18 14:04:45;;;;;;;;;;;;;;;;;;5017515;28;19924;-85
2023/10/18 14:07:11;;;;;;;;;;;;;;;;;;5017284;28;19917;-85
2023/10/18 14:09:36;;;;;;;;;;;;;;;;;;5018622;28;19924;-84
2023/10/18 14:12:01;;;;;;;;;;;;;;;;;;5017193;28;19921;-85
2023/10/18 14:14:27;;;;;;;;;;;;;;;;;;5018461;28;19917;-84
2023/10/18 14:16:52;;;;;;;;;;;;;;;;;;5018174;28;19917;-84
2023/10/18 14:19:19;;;;;;;;;;;;;;;;;;5016660;28;19917;-85
2023/10/18 14:21:48;;;;;;;;;;;;;;;;;;5014311;28;19922;-85
2023/10/18 14:24:15;;;;;;;;;;;;;;;;;;5014358;28;19917;-84
2023/10/18 14:26:40;;;;;;;;;;;;;;;;;;5015870;28;19922;-85
2023/10/18 14:29:08;;;;;;;;;;;;;;;;;;5015846;28;19944;-84
2023/10/18 14:31:35;;;;;;;;;;;;;;;;;;5016188;28;20078;-84
2023/10/18 14:34:01;;;;;;;;;;;;;;;;;;5017122;28;19925;-85
2023/10/18 14:36:26;;;;;;;;;;;;;;;;;;5015446;28;20011;-85
2023/10/18 14:38:51;;;;;;;;;;;;;;;;;;5017104;28;19924;-84
2023/10/18 14:41:17;;;;;;;;;;;;;;;;;;5015479;28;19952;-84
2023/10/18 14:43:42;;;;;;;;;;;;;;;;;;5015419;28;19928;-85
2023/10/18 14:46:15;;;;;;;;;;;;;;;;;;5010795;28;19980;-84
2023/10/18 14:48:40;;;;;;;;;;;;;;;;;;5013109;28;19944;-84
2023/10/18 14:51:05;;;;;;;;;;;;;;;;;;5015369;28;19918;-84
2023/10/18 14:53:31;;;;;;;;;;;;;;;;;;5014481;28;19921;-85
2023/10/18 14:55:56;;;;;;;;;;;;;;;;;;5013454;28;19990;-84
2023/10/18 14:58:23;;;;;;;;;;;;;;;;;;5015757;28;20411;-84
2023/10/18 15:00:48;;;;;;;;;;;;;;;;;;5016633;28;19917;-85
2023/10/18 15:03:15;;;;;;;;;;;;;;;;;;5016125;28;20684;-85
2023/10/18 15:05:41;;;;;;;;;;;;;;;;;;5015874;28;19952;-85
2023/10/18 15:08:06;;;;;;;;;;;;;;;;;;5014320;28;19925;-85
2023/10/18 15:10:31;;;;;;;;;;;;;;;;;;5015792;28;20272;-85
2023/10/18 15:12:56;;;;;;;;;;;;;;;;;;5016595;28;19917;-86
2023/10/18 15:15:21;;;;;;;;;;;;;;;;;;5014469;28;19925;-86
2023/10/18 15:17:46;;;;;;;;;;;;;;;;;;5013859;28;19925;-85
2023/10/18 15:20:12;;;;;;;;;;;;;;;;;;5011118;28;20632;-85
2023/10/18 15:22:37;;;;;;;;;;;;;;;;;;5012868;28;19918;-86
2023/10/18 15:25:04;;;;;;;;;;;;;;;;;;5012397;28;19925;-86
2023/10/18 15:27:30;;;;;;;;;;;;;;;;;;5014385;28;20013;-87
2023/10/18 15:29:55;;;;;;;;;;;;;;;;;;5008604;28;19945;-86
2023/10/18 15:32:20;;;;;;;;;;;;;;;;;;5012309;28;19925;-87
2023/10/18 15:34:45;;;;;;;;;;;;;;;;;;5011800;28;19917;-86
2023/10/18 15:37:11;;;;;;;;;;;;;;;;;;5012497;28;20399;-85
2023/10/18 15:39:36;;;;;;;;;;;;;;;;;;5015437;28;19925;-87
2023/10/18 15:42:01;;;;;;;;;;;;;;;;;;5012579;28;19918;-88
2023/10/18 15:44:26;;;;;;;;;;;;;;;;;;5011176;28;20396;-86
2023/10/18 15:46:59;;;;;;;;;;;;;;;;;;5015636;28;20155;-86
2023/10/18 15:49:24;;;;;;;;;;;;;;;;;;5019450;28;19921;-85
2023/10/18 15:51:50;;;;;;;;;;;;;;;;;;5018616;28;19917;-86
2023/10/18 15:54:15;;;;;;;;;;;;;;;;;;5018821;28;19928;-85
2023/10/18 15:56:41;;;;;;;;;;;;;;;;;;5013987;28;19917;-86
2023/10/18 15:59:08;;;;;;;;;;;;;;;;;;4996613;28;19917;-87
2023/10/18 16:01:33;;;;;;;;;;;;;;;;;;5004677;28;19948;-85
2023/10/18 16:03:59;;;;;;;;;;;;;;;;;;5010756;28;20338;-85
2023/10/18 16:06:24;;;;;;;;;;;;;;;;;;5015071;28;19925;-88
2023/10/18 16:08:51;;;;;;;;;;;;;;;;;;5016445;28;19917;-86
2023/10/18 16:11:16;;;;;;;;;;;;;;;;;;5015102;28;19917;-87
2023/10/18 16:13:42;;;;;;;;;;;;;;;;;;5014017;28;20005;-87
2023/10/18 16:16:09;;;;;;;;;;;;;;;;;;5014946;28;19913;-86
2023/10/18 16:18:37;;;;;;;;;;;;;;;;;;5009842;28;19974;-85
2023/10/18 16:21:03;;;;;;;;;;;;;;;;;;5017054;28;20015;-86
2023/10/18 16:23:28;;;;;;;;;;;;;;;;;;5014348;28;19921;-85
2023/10/18 16:25:53;;;;;;;;;;;;;;;;;;5012234;28;19921;-86
2023/10/18 16:28:18;;;;;;;;;;;;;;;;;;5015641;28;19918;-86
2023/10/18 16:30:43;;;;;;;;;;;;;;;;;;5013114;28;19996;-88
2023/10/18 16:33:08;;;;;;;;;;;;;;;;;;5008280;28;19918;-85
2023/10/18 16:35:34;;;;;;;;;;;;;;;;;;5010437;28;19925;-86
2023/10/18 16:38:00;;;;;;;;;;;;;;;;;;5007647;28;19917;-86
2023/10/18 16:40:25;;;;;;;;;;;;;;;;;;5009644;28;19925;-83
2023/10/18 16:42:50;;;;;;;;;;;;;;;;;;5003516;28;19979;-85
2023/10/18 16:45:19;;;;;;;;;;;;;;;;;;5008349;28;19929;-86
2023/10/18 16:47:44;;;;;;;;;;;;;;;;;;5006978;28;20295;-84
2023/10/18 16:50:12;;;;;;;;;;;;;;;;;;5012316;28;20380;-87
2023/10/18 16:52:38;;;;;;;;;;;;;;;;;;5012910;28;19925;-85
2023/10/18 16:55:03;;;;;;;;;;;;;;;;;;5012306;28;19980;-88
2023/10/18 16:57:29;;;;;;;;;;;;;;;;;;5011781;28;19925;-85
2023/10/18 16:59:55;;;;;;;;;;;;;;;;;;5008891;28;19976;-88
2023/10/18 17:02:22;;;;;;;;;;;;;;;;;;5011268;28;19925;-86
2023/10/18 17:04:48;;;;;;;;;;;;;;;;;;5013241;28;20356;-87
2023/10/18 17:07:13;;;;;;;;;;;;;;;;;;5013857;28;19928;-85
2023/10/18 17:09:40;;;;;;;;;;;;;;;;;;5015733;28;19925;-83
2023/10/18 17:12:05;;;;;;;;;;;;;;;;;;5016916;28;19924;-83
2023/10/18 17:14:32;;;;;;;;;;;;;;;;;;5016307;28;19925;-87
2023/10/18 17:16:57;;;;;;;;;;;;;;;;;;5016037;28;19925;-85
2023/10/18 17:19:22;;;;;;;;;;;;;;;;;;5016356;28;19917;-86